Flight Track Log - Related Links

Times and Time Zones

All times are in EDT time to prevent confusion due to time zone crossing. See the FLG3764 flight status page for this flight to view local times or setup timezone preferences in your user account.

Time Position Orientation Groundspeed Altitude Reporting Facility
EDT Latitude Longitude Course Direction KTS MPH feet Rate Location/Type
Wed 04:45:25 PM 37.4833 -77.3000 254° West 172 198 1,000  Level Potomac TRACON
Wed 04:46:42 PM 37.4347 -77.3364 211° Southwest 183 211 3,500 1,839 Climbing Washington Center
Wed 04:47:42 PM 37.4253 -77.4144 261° West 183 211 5,200 2,529 Climbing Washington Center
Wed 04:48:00 PM 37.4008 -77.7411 254° West  Level FlightAware Approximate
Wed 04:48:43 PM 37.4133 -77.5136 261° West 239 275 8,600  Level Washington Center
Wed 04:49:00 PM 37.3754 -77.8526 254° West  Level FlightAware Approximate
Wed 04:50:00 PM 37.3506 -77.9642 254° West  Level FlightAware Approximate
Wed 04:50:00 PM 37.4209 -77.6540 254° West  Level FlightAware Approximate
Wed 04:50:42 PM 37.3911 -77.7092 254° West 282 325 12,200  Level Washington Center
Wed 04:51:43 PM 37.3789 -77.8186 262° West 306 352 13,600 1,587 Climbing Washington Center
Wed 04:52:43 PM 37.3661 -77.9358 262° West 332 382 15,400 1,881 Climbing Washington Center
Wed 04:53:41 PM 37.3450 -78.0475 257° West 339 390 17,300 2,017 Climbing Washington Center
Wed 04:54:42 PM 37.3197 -78.1617 254° West 339 390 19,400 1,339 Climbing Washington Center
Wed 04:55:42 PM 37.2964 -78.2731 255° West 339 390 20,000 645 Climbing Washington Center
Wed 04:56:43 PM 37.3147 -78.3833 282° West 339 390 20,700 1,311 Climbing Washington Center
Wed 04:57:41 PM 37.3667 -78.4819 304° West 332 382 22,600 1,563 Climbing Washington Center
Wed 04:58:42 PM 37.4228 -78.5833 305° West 337 388 23,800 1,082 Climbing Washington Center
Wed 04:59:43 PM 37.4867 -78.6958 306° West 358 412 24,800 807 Climbing Washington Center
Wed 05:00:41 PM 37.5464 -78.7981 306° West 364 419 25,400 610 Climbing Washington Center
Wed 05:01:41 PM 37.5933 -78.9178 296° West 369 425 26,000 600 Climbing Washington Center
Wed 05:02:41 PM 37.6294 -79.0400 290° West 369 425 26,600 595 Climbing Washington Center
Wed 05:03:42 PM 37.6636 -79.1517 291° West 379 436 27,200 639 Climbing Washington Center
Wed 05:04:43 PM 37.7014 -79.2875 289° West 379 436 27,900 555 Climbing Washington Center
Wed 05:05:41 PM 37.7394 -79.4022 293° West 379 436 28,300 559 Climbing Washington Center
Wed 05:06:41 PM 37.7786 -79.5433 289° West 379 436 29,000 595 Climbing Washington Center
Wed 05:07:42 PM 37.8142 -79.6689 290° West 379 436 29,500 443 Climbing Washington Center
Wed 05:08:43 PM 37.8494 -79.7917 290° West 379 436 29,900 252 Climbing Washington Center
Wed 05:09:41 PM 37.8828 -79.9069 290° West 379 436 30,000 50 Climbing Washington Center
Wed 05:10:42 PM 37.9197 -80.0378 290° West 384 442 30,000  Level Washington Center
Wed 05:13:05 PM 38.0122 -80.3569 290° West 392 451 30,000  Level Indianapolis Center
Wed 05:14:07 PM 38.0475 -80.4836 290° West 391 450 30,000  Level Indianapolis Center
Wed 05:15:10 PM 38.0878 -80.6261 290° West 394 453 30,000  Level Indianapolis Center
Wed 05:16:12 PM 38.1244 -80.7575 290° West 395 455 30,000  Level Indianapolis Center
Wed 05:17:14 PM 38.1611 -80.8872 290° West 392 451 30,000  Level Indianapolis Center
Wed 05:18:16 PM 38.1983 -81.0192 290° West 394 453 30,000  Level Indianapolis Center
Wed 05:19:18 PM 38.2331 -81.1492 289° West 390 449 30,000  Level Indianapolis Center
Wed 05:20:20 PM 38.2717 -81.2792 291° West 389 448 30,000  Level Indianapolis Center
Wed 05:21:22 PM 38.3636 -81.3419 332° Northwest 382 440 30,000  Level Indianapolis Center
Wed 05:22:24 PM 38.4822 -81.3867 344° North 373 429 30,000  Level Indianapolis Center
Wed 05:23:26 PM 38.5783 -81.4231 344° North 364 419 30,000  Level Indianapolis Center
Wed 05:24:28 PM 38.6808 -81.4625 343° North 366 421 30,000  Level Indianapolis Center
Wed 05:25:30 PM 38.7789 -81.5011 343° North 367 422 30,000  Level Indianapolis Center
Wed 05:26:32 PM 38.8794 -81.5381 344° North 354 407 30,000  Level Indianapolis Center
Wed 05:27:34 PM 38.9711 -81.5736 343° North 345 397 30,000  Level Indianapolis Center
Wed 05:28:36 PM 39.0625 -81.6089 343° North 342 394 30,000  Level Indianapolis Center
Wed 05:29:38 PM 39.1556 -81.6450 343° North 348 400 30,000  Level Indianapolis Center
Wed 05:30:40 PM 39.2511 -81.6822 343° North 357 411 30,000  Level Indianapolis Center
Wed 05:31:42 PM 39.3497 -81.7206 343° North 368 423 30,000  Level Indianapolis Center
Wed 05:32:44 PM 39.4672 -81.7656 344° North 367 422 30,000  Level Indianapolis Center
Wed 05:33:46 PM 39.5642 -81.8042 343° North 365 420 30,000  Level Indianapolis Center
Wed 05:34:47 PM 39.6608 -81.8419 343° North 363 418 30,000  Level Indianapolis Center
Wed 05:35:49 PM 39.7583 -81.8697 348° North 361 415 30,000 -129 Level Indianapolis Center
Wed 05:37:00 PM 39.8731 -81.8900 353° North  Level FlightAware Approximate
Wed 05:37:53 PM 39.9572 -81.9061 353° North 359 413 29,600  Level Indianapolis Center
Wed 05:38:55 PM 40.0767 -81.9269 352° North 367 422 27,800 -1,597 Descending Indianapolis Center
Wed 05:39:57 PM 40.1769 -81.9450 352° North 363 418 26,300 -871 Descending Indianapolis Center
Wed 05:40:59 PM 40.2686 -81.9619 352° North 361 415 26,000 -145 Descending Indianapolis Center
Wed 05:42:01 PM 40.3619 -81.9786 352° North 338 389 26,000  Level Indianapolis Center
Wed 05:42:45 PM 40.4419 -81.9936 352° North 331 381 26,000  Level Cleveland Center
Wed 05:43:45 PM 40.5419 -82.0092 353° North 358 412 26,000  Level Cleveland Center
Wed 05:44:45 PM 40.6478 -82.0308 351° North 387 445 26,000  Level Cleveland Center
Wed 05:45:45 PM 40.7561 -82.0494 353° North 385 443 26,000  Level Cleveland Center
Wed 05:46:45 PM 40.8622 -82.0683 352° North 380 437 26,000  Level Cleveland Center
Wed 05:47:45 PM 40.9661 -82.0900 351° North 380 437 26,000 -100 Level Cleveland Center
Wed 05:48:45 PM 41.0572 -82.1361 339° North 386 444 25,800 -850 Descending Cleveland Center
Wed 05:49:45 PM 41.1478 -82.2267 323° Northwest 386 444 24,300 -1,300 Descending Cleveland Center
Wed 05:50:45 PM 41.2361 -82.3117 324° Northwest 393 452 23,200 -1,550 Descending Cleveland Center
Wed 05:51:45 PM 41.3203 -82.3914 325° Northwest 378 435 21,200 -2,100 Descending Cleveland Center
Wed 05:52:45 PM 41.4167 -82.4825 325° Northwest 384 442 19,000 -2,050 Descending Cleveland Center
Wed 05:53:45 PM 41.5031 -82.5656 324° Northwest 389 448 17,100 -1,976 Descending Cleveland Center
Wed 05:54:10 PM 41.5358 -82.5969 324° Northwest 384 442 16,200 -1,967 Descending Cleveland Center
Wed 05:54:46 PM 41.5869 -82.6458 324° Northwest 377 434 15,100 -2,055 Descending Cleveland Center
Wed 05:55:23 PM 41.6383 -82.6947 325° Northwest 357 411 13,700 -1,932 Descending Cleveland Center
Wed 05:55:45 PM 41.6586 -82.7147 324° Northwest 368 423 13,200 -1,855 Descending Cleveland Center
Wed 05:56:18 PM 41.7078 -82.7667 322° Northwest 347 399 12,000 -1,200 Descending Cleveland Center
Wed 05:56:45 PM 41.7344 -82.7897 327° Northwest 357 411 12,000  Level Cleveland Center
Wed 05:57:25 PM 41.7894 -82.8583 317° Northwest 342 394 12,000  Level Cleveland Center
Wed 05:57:45 PM 41.8056 -82.8758 321° Northwest 346 398 12,000  Level Cleveland Center
Wed 05:58:20 PM 41.8544 -82.9361 317° Northwest 342 394 12,000  Level Cleveland Center
Wed 05:58:45 PM 41.8769 -82.9619 319° Northwest 346 398 12,000  Level Cleveland Center
Wed 05:59:27 PM 41.9339 -83.0311 318° Northwest 354 407 12,000  Level Cleveland Center
Wed 05:59:45 PM 41.9500 -83.0486 321° Northwest 346 398 12,000  Level Cleveland Center
Wed 06:00:28 PM 42.0069 -83.1206 317° Northwest 350 403 12,000 -98 Level Cleveland Center
Wed 06:00:46 PM 42.0211 -83.1350 323° Northwest 351 404 11,900 -295 Descending Cleveland Center
Wed 06:01:29 PM 42.0658 -83.1900 318° Northwest 241 277 11,700 -407 Descending Cleveland Center
Wed 06:01:45 PM 42.0719 -83.1986 314° West 310 357 11,500 -627 Descending Cleveland Center
Wed 06:02:36 PM 42.1250 -83.2428 328° Northwest 230 265 11,000 -1,017 Descending Cleveland Center
Wed 06:03:43 PM 42.1942 -83.2317 North 231 266 9,500 -1,406 Descending Cleveland Center
Wed 06:04:44 PM 42.2472 -83.1861 32° Northeast 231 266 8,000 -1,131 Descending Cleveland Center
Wed 06:05:45 PM 42.3025 -83.1381 33° Northeast 229 264 7,200 -1,082 Descending Cleveland Center
Wed 06:06:46 PM 42.3567 -83.1458 354° North 224 258 5,800 -1,082 Descending Cleveland Center
Wed 06:07:47 PM 42.3633 -83.2219 277° West 193 222 5,000 -885 Descending Cleveland Center
Wed 06:08:48 PM 42.3228 -83.2622 216° Southwest 171 197 4,000 -1,255 Descending Cleveland Center
Wed 06:09:37 PM 42.2931 -83.2808 205° Southwest 138 159 2,700 -1,592 Descending Cleveland Center

Login

Don't have an account? Register now (free) for customized features, flight alerts, and more!